Smit Barbados — MSDU8 — position and weather

sailwx.info

Track history (hours):
 
Tides and Currents Weather Stations Pressure Air Temp Water Temp Dewpoint Dewpoint Depression Visibility Wind Speed Wind Dir Waves Ship Positions

Smit Barbados

Last reported at 2017-Nov-20 00:30 UTC. Time now 2017-Nov-20 13:58 UTC.
Position N 53°27' W 003°00'.

Length 30 m; draft 4.8 m.

Type: Tug. MMSI: 235055303.

Date/timePositionNaut miles runAvg speedWind from/ knotsBaromVisibWave heightAir tempDewpointWater temp
2017-Nov-20 00:30N 53°27' W 003°00'1 1.4
2017-Nov-20 00:00N 53°27' W 003°01'0 0.3
2017-Nov-19 23:30N 53°27' W 003°01'0 0.1
2017-Nov-19 23:00N 53°27' W 003°01'0 0.1
2017-Nov-19 22:30N 53°27' W 003°01'0 0.2
2017-Nov-19 22:00N 53°27' W 003°01'1 1.0
2017-Nov-19 21:30N 53°27' W 003°01'1 1.0
2017-Nov-19 21:00N 53°27' W 003°01'0 0.4
2017-Nov-19 20:30N 53°27' W 003°01'1 2.0
2017-Nov-19 20:00N 53°27' W 003°02'1 1.0
2017-Nov-19 19:30N 53°27' W 003°02'0 0.9
2017-Nov-19 19:00N 53°27' W 003°01'0 0.7
2017-Nov-19 18:30N 53°27' W 003°01'1 1.1
2017-Nov-19 18:00N 53°27' W 003°01'1 2.9
2017-Nov-19 17:30N 53°26' W 003°00'0 0.1
2017-Nov-19 17:00N 53°26' W 002°60'0 0.0
2017-Nov-19 16:30N 53°26' W 002°60'0 0.0
2017-Nov-19 16:00N 53°26' W 002°60'0 0.0
2017-Nov-19 15:30N 53°26' W 002°60'0 0.0
2017-Nov-19 15:00N 53°26' W 002°60'0 0.0
2017-Nov-19 14:30N 53°26' W 002°60'0 0.0
2017-Nov-19 14:00N 53°26' W 002°60'0 0.1
2017-Nov-19 13:30N 53°26' W 003°00'2 3.2
2017-Nov-19 13:00N 53°27' W 003°01'0 0.6
2017-Nov-19 12:30N 53°27' W 003°01'0 0.3
2017-Nov-19 12:00N 53°27' W 003°01'0 0.4
2017-Nov-19 11:30N 53°27' W 003°01'1 2.3
2017-Nov-19 11:00N 53°26' W 003°00'0 0.6
2017-Nov-19 10:30N 53°26' W 002°60'0 0.0
2017-Nov-19 10:00N 53°26' W 002°60'0 0.0
2017-Nov-19 09:30N 53°26' W 002°60'0 0.0
2017-Nov-19 09:00N 53°26' W 002°60'0 0.0
2017-Nov-19 08:30N 53°26' W 002°60'0 0.0
2017-Nov-19 08:00N 53°26' W 002°60'0 0.0
2017-Nov-19 07:30N 53°26' W 002°60'0 0.0
2017-Nov-19 07:00N 53°26' W 002°60'0 0.0
2017-Nov-19 06:30N 53°26' W 002°60'0 0.0
2017-Nov-19 06:00N 53°26' W 002°60'0 0.0
2017-Nov-19 05:30N 53°26' W 002°60'0 0.0
2017-Nov-19 05:00N 53°26' W 002°60'0 0.0
2017-Nov-19 04:30N 53°26' W 002°60'0 0.0
2017-Nov-19 04:00N 53°26' W 002°60'0 0.0
2017-Nov-19 03:30N 53°26' W 002°60'0 0.0
2017-Nov-19 03:00N 53°26' W 002°60'0 0.0
2017-Nov-19 02:30N 53°26' W 002°60'0 0.0
2017-Nov-19 02:00N 53°26' W 002°60'0 0.0
2017-Nov-19 01:30N 53°26' W 002°60'0 0.0
2017-Nov-19 01:00N 53°26' W 002°60'0 0.0
2017-Nov-19 00:30N 53°26' W 002°60'0 0.0
2017-Nov-19 00:00N 53°26' W 002°60'0 0.1
2017-Nov-18 23:30N 53°26' W 003°00'1 1.0
2017-Nov-18 23:00N 53°26' W 003°00'0 0.5
2017-Nov-18 22:30N 53°27' W 003°00'0 0.3
2017-Nov-18 22:00N 53°26' W 003°01'0 0.4
2017-Nov-18 21:30N 53°26' W 003°01'0 0.3
2017-Nov-18 21:00N 53°26' W 003°01'1 2.3
2017-Nov-18 20:30N 53°27' W 003°02'1 1.8
2017-Nov-18 20:00N 53°26' W 003°01'1 1.4
2017-Nov-18 19:30N 53°26' W 002°60'0 0.0
2017-Nov-18 19:00N 53°26' W 002°60'0 0.0
2017-Nov-18 18:30N 53°26' W 002°60'0 0.0
2017-Nov-18 18:00N 53°26' W 002°60'0 0.0
2017-Nov-18 17:30N 53°26' W 002°60'0 0.0
2017-Nov-18 17:00N 53°26' W 002°60'0 0.0
2017-Nov-18 16:30N 53°26' W 002°60'0 0.0
2017-Nov-18 16:00N 53°26' W 002°60'0 0.0
2017-Nov-18 15:30N 53°26' W 002°60'0 0.0
2017-Nov-18 15:00N 53°26' W 002°60'0 0.0
2017-Nov-18 14:30N 53°26' W 002°60'0 0.0
2017-Nov-18 14:00N 53°26' W 002°60'0 0.0
2017-Nov-18 13:30N 53°26' W 002°60'0 0.0
2017-Nov-18 13:00N 53°26' W 002°60'0 0.0
2017-Nov-18 12:30N 53°26' W 002°60'0 0.0
2017-Nov-18 12:00N 53°26' W 002°60'0 0.0
2017-Nov-18 11:30N 53°26' W 002°60'0 0.0
2017-Nov-18 11:00N 53°26' W 002°60'1 2.2
2017-Nov-18 10:30N 53°27' W 003°00'0 0.3
2017-Nov-18 10:00N 53°27' W 003°01'0 0.8
2017-Nov-18 09:30N 53°26' W 003°01'0 0.2
2017-Nov-18 09:00N 53°26' W 003°01'0 0.4
2017-Nov-18 08:30N 53°26' W 003°01'2 3.9
2017-Nov-18 08:00N 53°28' W 003°03'2 3.7
2017-Nov-18 07:30N 53°26' W 003°01'1 1.3
2017-Nov-18 07:00N 53°26' W 002°60'0 0.0
2017-Nov-18 06:30N 53°26' W 002°60'0 0.0
2017-Nov-18 06:00N 53°26' W 002°60'0 0.0
2017-Nov-18 05:30N 53°26' W 002°60'0 0.0
2017-Nov-18 05:00N 53°26' W 002°60'0 0.0
2017-Nov-18 04:30N 53°26' W 002°60'0 0.0
2017-Nov-18 04:00N 53°26' W 002°60'0 0.0
2017-Nov-18 03:30N 53°26' W 002°60'0 0.0
2017-Nov-18 03:00N 53°26' W 002°60'0 0.0
2017-Nov-18 02:30N 53°26' W 002°60'0 0.0
2017-Nov-18 02:00N 53°26' W 002°60'0 0.0
2017-Nov-18 01:30N 53°26' W 002°60'0 0.0
2017-Nov-18 01:00N 53°26' W 002°60'0 0.0
2017-Nov-18 00:30N 53°26' W 002°60'0 0.0
2017-Nov-18 00:00N 53°26' W 002°60'1 1.7
2017-Nov-17 23:30N 53°27' W 003°01'1 2.1
2017-Nov-17 23:00N 53°28' W 003°02'1 1.2
2017-Nov-17 22:30N 53°27' W 003°01'0 0.4
2017-Nov-17 22:00N 53°27' W 003°01'0 0.2
2017-Nov-17 21:30N 53°27' W 003°01'0 0.3
2017-Nov-17 21:00N 53°27' W 003°01'2 4.1
2017-Nov-17 20:30N 53°28' W 003°04'2 3.5
2017-Nov-17 20:00N 53°27' W 003°02'0 0.6
2017-Nov-17 19:30N 53°27' W 003°01'0 0.2
2017-Nov-17 19:00N 53°27' W 003°01'0 0.1
2017-Nov-17 18:30N 53°27' W 003°01'1 2.8
2017-Nov-17 18:00N 53°26' W 002°60'0 0.0
2017-Nov-17 17:30N 53°26' W 002°60'0 0.0
2017-Nov-17 17:00N 53°26' W 002°60'0 0.0
2017-Nov-17 16:30N 53°26' W 002°60'0 0.0
2017-Nov-17 16:00N 53°26' W 002°60'0 0.0
2017-Nov-17 15:30N 53°26' W 002°60'0 0.0
2017-Nov-17 15:00N 53°26' W 002°60'0 0.0
2017-Nov-17 14:30N 53°26' W 002°60'0 0.0
2017-Nov-17 14:00N 53°26' W 002°60'0 0.0
2017-Nov-17 13:30N 53°26' W 002°60'0 0.0
2017-Nov-17 13:00N 53°26' W 002°60'0 0.0
2017-Nov-17 12:30N 53°26' W 002°60'0 0.0
2017-Nov-17 12:00N 53°26' W 002°60'0 0.0
2017-Nov-17 11:30N 53°26' W 002°60'0 0.0
2017-Nov-17 11:00N 53°26' W 002°60'0 0.0
2017-Nov-17 10:30N 53°26' W 002°60'0 0.0
2017-Nov-17 10:00N 53°26' W 002°60'1 2.8
2017-Nov-17 09:30N 53°27' W 003°01'0 0.3
2017-Nov-17 09:00N 53°27' W 003°01'0 0.2
2017-Nov-17 08:30N 53°27' W 003°01'0 0.0
2017-Nov-17 08:00N 53°27' W 003°01'2 3.0
2017-Nov-17 07:30N 53°26' W 003°00'0 0.2
2017-Nov-17 07:00N 53°26' W 002°60'0 0.0
2017-Nov-17 06:30N 53°26' W 002°60'0 0.0
2017-Nov-17 06:00N 53°26' W 002°60'0 0.0
2017-Nov-17 05:30N 53°26' W 002°60'0 0.0
2017-Nov-17 05:00N 53°26' W 002°60'0 0.0
2017-Nov-17 04:30N 53°26' W 002°60'0 0.0
2017-Nov-17 04:00N 53°26' W 002°60'0 0.0
2017-Nov-17 03:31N 53°26' W 002°60'0 0.0
2017-Nov-17 03:00N 53°26' W 002°60'0 0.0
2017-Nov-17 02:30N 53°26' W 002°60'0 0.0
2017-Nov-17 02:00N 53°26' W 002°60'0 0.0
2017-Nov-17 01:30N 53°26' W 002°60'0 0.0
2017-Nov-17 01:00N 53°26' W 002°60'0 0.0
2017-Nov-17 00:30N 53°26' W 002°60'0 0.0
2017-Nov-17 00:00N 53°26' W 002°60'0 0.0
2017-Nov-16 23:30N 53°26' W 002°60'0 0.0
2017-Nov-16 23:00N 53°26' W 002°60'0 0.0
2017-Nov-16 22:31N 53°26' W 002°60'0 0.0
2017-Nov-16 22:00N 53°26' W 002°60'0 0.0
2017-Nov-16 21:30N 53°26' W 002°60'0 0.0
2017-Nov-16 21:00N 53°26' W 002°60'0 0.0
2017-Nov-16 20:30N 53°26' W 002°60'0 0.0
2017-Nov-16 20:00N 53°26' W 002°60'0 0.0
2017-Nov-16 19:30N 53°26' W 002°60'0 0.0
2017-Nov-16 19:01N 53°26' W 002°60'0 0.0
2017-Nov-16 18:30N 53°26' W 002°60'0 0.0
2017-Nov-16 18:00N 53°26' W 002°60'0 0.0
2017-Nov-16 17:31N 53°26' W 002°60'0 0.0
2017-Nov-16 17:00N 53°26' W 002°60'0 0.0
2017-Nov-16 16:30N 53°26' W 002°60'0 0.0
2017-Nov-16 16:00N 53°26' W 002°60'0 0.0
2017-Nov-16 15:30N 53°26' W 002°60'0 0.0
2017-Nov-16 15:00N 53°26' W 002°60'0 0.0
2017-Nov-16 14:30N 53°26' W 002°60'0 0.0
2017-Nov-16 14:00N 53°26' W 002°60'0 0.0
2017-Nov-16 13:31N 53°26' W 002°60'0 0.0
2017-Nov-16 13:00N 53°26' W 002°60'0 0.0
2017-Nov-16 12:30N 53°26' W 002°60'0 0.0
2017-Nov-16 12:00N 53°26' W 002°60'0 0.0
2017-Nov-16 11:30N 53°26' W 002°60'0 0.0
2017-Nov-16 11:00N 53°26' W 002°60'0 0.0
2017-Nov-16 10:30N 53°26' W 002°60'0 0.0
2017-Nov-16 10:00N 53°26' W 002°60'0 0.0
2017-Nov-16 09:30N 53°26' W 002°60'0 0.0
2017-Nov-16 09:00N 53°26' W 002°60'0 0.7
2017-Nov-16 08:30N 53°26' W 003°00'0 0.5
2017-Nov-16 08:00N 53°26' W 002°60'0 0.7
2017-Nov-16 07:30N 53°26' W 003°00'0 0.2
2017-Nov-16 07:00N 53°26' W 003°01'0 0.1
2017-Nov-16 06:30N 53°26' W 003°01'0 0.0
2017-Nov-16 06:00N 53°26' W 003°01'0 0.3
2017-Nov-16 05:30N 53°27' W 003°00'1 1.6
2017-Nov-16 05:00N 53°26' W 002°60'0 0.0
2017-Nov-16 04:30N 53°26' W 002°60'0 0.0
2017-Nov-16 04:00N 53°26' W 002°60'0 0.0
2017-Nov-16 03:30N 53°26' W 002°60'0 0.0
2017-Nov-16 03:00N 53°26' W 002°60'0 0.0
2017-Nov-16 02:30N 53°26' W 002°60'0 0.0
2017-Nov-16 02:00N 53°26' W 002°60'0 0.0
2017-Nov-16 01:30N 53°26' W 002°60'0 0.0
2017-Nov-16 01:00N 53°26' W 002°60'0 0.0
2017-Nov-16 00:30N 53°26' W 002°60'0 0.0
2017-Nov-16 00:00N 53°26' W 002°60'0 0.0
2017-Nov-15 23:30N 53°26' W 002°60'0 0.0
2017-Nov-15 23:00N 53°26' W 002°60'0 0.0
2017-Nov-15 22:30N 53°26' W 002°60'0 0.0
2017-Nov-15 22:00N 53°26' W 002°60'0 0.0
2017-Nov-15 21:30N 53°26' W 002°60'0 0.0
2017-Nov-15 21:00N 53°26' W 002°60'0 0.0
2017-Nov-15 20:30N 53°26' W 002°60'0 0.0
2017-Nov-15 20:00N 53°26' W 002°60'0 0.0
2017-Nov-15 19:30N 53°26' W 002°60'0 0.0
2017-Nov-15 19:00N 53°26' W 002°60'0 0.0
2017-Nov-15 18:30N 53°26' W 002°60'0 0.0
2017-Nov-15 18:00N 53°26' W 002°60'0 0.0
2017-Nov-15 17:30N 53°26' W 002°60'0 0.0
2017-Nov-15 17:00N 53°26' W 002°60'0 0.0
2017-Nov-15 16:30N 53°26' W 002°60'0 0.0
2017-Nov-15 16:01N 53°26' W 002°60'0 0.0
2017-Nov-15 15:30N 53°26' W 002°60'0 0.0
2017-Nov-15 15:00N 53°26' W 002°60'0 0.0
2017-Nov-15 14:30N 53°26' W 002°60'0 0.0
2017-Nov-15 14:00N 53°26' W 002°60'0 0.0
2017-Nov-15 13:30N 53°26' W 002°60'0 0.0
2017-Nov-15 13:01N 53°26' W 002°60'0 0.0
2017-Nov-15 12:30N 53°26' W 002°60'0 0.0
2017-Nov-15 12:00N 53°26' W 002°60'0 0.0
2017-Nov-15 11:30N 53°26' W 002°60'0 0.0
2017-Nov-15 11:00N 53°26' W 002°60'0 0.0
2017-Nov-15 10:31N 53°26' W 002°60'0 0.0
2017-Nov-15 10:00N 53°26' W 002°60'0 0.0
2017-Nov-15 09:31N 53°26' W 002°60'0 0.0
2017-Nov-15 09:00N 53°26' W 002°60'0 0.0
2017-Nov-15 08:30N 53°26' W 002°60'0 0.0
2017-Nov-15 08:00N 53°26' W 002°60'0 0.0
2017-Nov-15 07:30N 53°26' W 002°60'0 0.0
2017-Nov-15 07:00N 53°26' W 002°60'0 0.0
2017-Nov-15 06:30N 53°26' W 002°60'0 0.0
2017-Nov-15 06:01N 53°26' W 002°60'0 0.0
2017-Nov-15 05:30N 53°26' W 002°60'0 0.0
2017-Nov-15 05:00N 53°26' W 002°60'0 0.0
2017-Nov-15 04:31N 53°26' W 002°60'0 0.0
2017-Nov-15 04:00N 53°26' W 002°60'0 0.0
2017-Nov-15 03:30N 53°26' W 002°60'0 0.0
2017-Nov-15 03:00N 53°26' W 002°60'0 0.0
2017-Nov-15 02:30N 53°26' W 002°60'0 0.0
2017-Nov-15 02:00N 53°26' W 002°60'0 0.0
2017-Nov-15 01:30N 53°26' W 002°60'0 0.0
2017-Nov-15 01:01N 53°26' W 002°60'0 0.0
2017-Nov-15 00:30N 53°26' W 002°60'0 0.0
2017-Nov-15 00:01N 53°26' W 002°60'0 0.0
2017-Nov-14 23:30N 53°26' W 002°60'0 0.0
2017-Nov-14 23:00N 53°26' W 002°60'0 0.0
2017-Nov-14 22:30N 53°26' W 002°60'0 0.0
2017-Nov-14 22:00N 53°26' W 002°60'0 0.0
2017-Nov-14 21:30N 53°26' W 002°60'0 0.0
2017-Nov-14 21:01N 53°26' W 002°60'0 0.0
2017-Nov-14 20:31N 53°26' W 002°60'0 0.0
2017-Nov-14 20:00N 53°26' W 002°60'0 0.0
2017-Nov-14 19:30N 53°26' W 002°60'0 0.0
2017-Nov-14 19:00N 53°26' W 002°60'0 0.0
2017-Nov-14 18:30N 53°26' W 002°60'0 0.0
2017-Nov-14 18:00N 53°26' W 002°60'0 0.0
2017-Nov-14 17:30N 53°26' W 002°60'0 0.0
2017-Nov-14 17:00N 53°26' W 002°60'0 0.0
2017-Nov-14 16:30N 53°26' W 002°60'0 0.0
2017-Nov-14 16:01N 53°26' W 002°60'0 0.0
2017-Nov-14 15:30N 53°26' W 002°60'0 0.0
2017-Nov-14 15:00N 53°26' W 002°60'0 0.0
2017-Nov-14 14:30N 53°26' W 002°60'0 0.0
2017-Nov-14 14:00N 53°26' W 002°60'0 0.0
2017-Nov-14 13:30N 53°26' W 002°60'0 0.0
2017-Nov-14 13:01N 53°26' W 002°60'0 0.0
2017-Nov-14 12:31N 53°26' W 002°60'0 0.0
2017-Nov-14 12:00N 53°26' W 002°60'0 0.0
2017-Nov-14 11:30N 53°26' W 002°60'0 0.0
2017-Nov-14 11:01N 53°26' W 002°60'0 0.0
2017-Nov-14 10:30N 53°26' W 002°60'0 0.0
2017-Nov-14 10:00N 53°26' W 002°60'0 0.0
2017-Nov-14 09:30N 53°26' W 002°60'0 0.0
2017-Nov-14 09:00N 53°26' W 002°60'0 0.0
2017-Nov-14 08:30N 53°26' W 002°60'0 0.0
2017-Nov-14 08:00N 53°26' W 002°60'0 0.0
2017-Nov-14 07:31N 53°26' W 002°60'0 0.0
2017-Nov-14 07:00N 53°26' W 002°60'0 0.0
2017-Nov-14 06:30N 53°26' W 002°60'0 0.0
2017-Nov-14 06:00N 53°26' W 002°60'0 0.0
2017-Nov-14 05:30N 53°26' W 002°60'0 0.0
2017-Nov-14 05:00N 53°26' W 002°60'0 0.0
2017-Nov-14 04:30N 53°26' W 002°60'0 0.0
2017-Nov-14 04:00N 53°26' W 002°60'0 0.0
2017-Nov-14 03:30N 53°26' W 002°60'0 0.0
2017-Nov-14 03:00N 53°26' W 002°60'0 0.0
2017-Nov-14 02:30N 53°26' W 002°60'0 0.0
2017-Nov-14 02:00N 53°26' W 002°60'0 0.0
2017-Nov-14 01:30N 53°26' W 002°60'0 0.0
2017-Nov-14 01:00N 53°26' W 002°60'0 0.0
2017-Nov-14 00:30N 53°26' W 002°60'0 0.0
2017-Nov-14 00:01N 53°26' W 002°60'0 0.0
2017-Nov-13 23:31N 53°26' W 002°60'0 0.0
2017-Nov-13 23:00N 53°26' W 002°60'0 0.0
2017-Nov-13 22:30N 53°26' W 002°60'0 0.0
2017-Nov-13 22:00N 53°26' W 002°60'0 0.0
2017-Nov-13 02:00N 53°26' W 002°60'0 0.0
2017-Nov-13 01:30N 53°26' W 002°60'0 0.0
2017-Nov-13 01:00N 53°26' W 002°60'0 0.0
2017-Nov-13 00:30N 53°26' W 002°60'0 0.0
2017-Nov-13 00:00N 53°26' W 002°60'0 0.0
2017-Nov-12 23:30N 53°26' W 002°60'0 0.0
2017-Nov-12 23:00N 53°26' W 002°60'0 0.0
2017-Nov-12 22:30N 53°26' W 002°60'0 0.0
2017-Nov-12 22:00N 53°26' W 002°60'0 0.0
2017-Nov-12 21:30N 53°26' W 002°60'0 0.0
2017-Nov-12 21:00N 53°26' W 002°60'0 0.0
2017-Nov-12 20:30N 53°26' W 002°60'1 1.4
2017-Nov-12 20:00N 53°26' W 003°01'0 0.1
2017-Nov-12 19:30N 53°26' W 003°01'713.4
2017-Nov-12 19:01N 53°20' W 002°57'0 0.5
2017-Nov-12 18:30N 53°20' W 002°57'3 5.8
2017-Nov-12 18:00N 53°22' W 002°59'1 2.0
2017-Nov-12 17:30N 53°23' W 003°00'0 0.1
2017-Nov-12 17:00N 53°23' W 003°00'4 7.6
2017-Nov-12 16:30N 53°27' W 003°01'0 0.4
2017-Nov-12 16:01N 53°27' W 003°01'1 3.0
2017-Nov-12 15:31N 53°26' W 003°00'0 0.1
2017-Nov-12 15:00N 53°26' W 002°60'0 0.0
2017-Nov-12 14:30N 53°26' W 002°60'0 0.0
2017-Nov-12 14:00N 53°26' W 002°60'0 0.0
2017-Nov-12 13:30N 53°26' W 002°60'0 0.0
2017-Nov-12 13:00N 53°26' W 002°60'0 0.0
2017-Nov-12 12:30N 53°26' W 002°60'0 0.0
2017-Nov-12 12:00N 53°26' W 002°60'0 0.0
2017-Nov-12 11:30N 53°26' W 002°60'0 0.0
2017-Nov-12 11:00N 53°26' W 002°60'0 0.0
2017-Nov-12 10:30N 53°26' W 002°60'0 0.0
2017-Nov-12 10:00N 53°26' W 002°60'0 0.0
2017-Nov-12 09:30N 53°26' W 002°60'0 0.0
2017-Nov-12 09:00N 53°26' W 002°60'0 0.0
2017-Nov-12 08:30N 53°26' W 002°60'0 0.0
2017-Nov-12 08:00N 53°26' W 002°60'0 0.0
2017-Nov-12 07:30N 53°26' W 002°60'0 0.0
2017-Nov-12 07:00N 53°26' W 002°60'0 0.0
2017-Nov-12 06:30N 53°26' W 002°60'1 1.4
2017-Nov-12 06:00N 53°26' W 003°00'0 0.1
2017-Nov-12 05:30N 53°26' W 003°01'0 0.6
2017-Nov-12 05:00N 53°26' W 003°01'0 0.1
2017-Nov-12 04:30N 53°26' W 003°01'2 4.1
2017-Nov-12 04:00N 53°24' W 003°01'0 0.0
2017-Nov-12 03:30N 53°24' W 003°01'0 0.0
2017-Nov-12 03:00N 53°24' W 003°01'0 0.0
2017-Nov-12 02:30N 53°24' W 003°01'1 1.7
2017-Nov-12 02:00N 53°24' W 003°03'0 0.7
2017-Nov-12 01:30N 53°24' W 003°02'0 0.0
2017-Nov-12 01:00N 53°24' W 003°02'0 0.0
2017-Nov-12 00:30N 53°24' W 003°02'0 0.0
2017-Nov-12 00:00N 53°24' W 003°02'0 0.0
2017-Nov-11 23:30N 53°24' W 003°02'0 0.0
2017-Nov-11 23:00N 53°24' W 003°02'0 0.0
2017-Nov-11 22:30N 53°24' W 003°02'0 0.0
2017-Nov-11 22:00N 53°24' W 003°02'0 0.0
2017-Nov-11 21:30N 53°24' W 003°02'0 0.0
2017-Nov-11 21:00N 53°24' W 003°02'0 0.0
2017-Nov-11 20:30N 53°24' W 003°02'0 0.0
2017-Nov-11 20:00N 53°24' W 003°02'0 0.0
2017-Nov-11 19:30N 53°24' W 003°02'0 0.0
2017-Nov-11 19:00N 53°24' W 003°02'0 0.0
2017-Nov-11 18:30N 53°24' W 003°02'0 0.0
2017-Nov-11 18:00N 53°24' W 003°02'0 1.0
2017-Nov-11 17:30N 53°24' W 003°01'0 0.0
2017-Nov-11 17:00N 53°24' W 003°01'0 0.0
2017-Nov-11 16:30N 53°24' W 003°01'0 0.0
2017-Nov-11 16:00N 53°24' W 003°01'3 5.8
2017-Nov-11 15:30N 53°27' W 003°01'0 0.2
2017-Nov-11 14:59N 53°27' W 003°01'0 0.9
2017-Nov-11 14:30N 53°28' W 003°02'0 0.2
2017-Nov-11 14:00N 53°28' W 003°02'0 0.9
2017-Nov-11 13:30N 53°27' W 003°01'0 0.0
2017-Nov-11 13:00N 53°27' W 003°01'0 0.0
2017-Nov-11 12:30N 53°27' W 003°01'0 0.0
2017-Nov-11 12:00N 53°27' W 003°01'0 0.0
2017-Nov-11 11:30N 53°27' W 003°01'0 0.0
2017-Nov-11 11:00N 53°27' W 003°01'0 0.0
2017-Nov-11 10:30N 53°27' W 003°01'0 0.5
2017-Nov-11 10:00N 53°27' W 003°01'0 0.3
2017-Nov-11 09:30N 53°27' W 003°01'0 0.2
2017-Nov-11 09:00N 53°27' W 003°01'0 0.5
2017-Nov-11 08:30N 53°27' W 003°01'0 0.2
2017-Nov-11 08:00N 53°27' W 003°01'0 0.0
2017-Nov-11 07:30N 53°27' W 003°01'0 0.0
2017-Nov-11 07:00N 53°27' W 003°01'0 0.0
2017-Nov-11 06:30N 53°27' W 003°01'0 0.0
2017-Nov-11 06:00N 53°27' W 003°01'0 0.0
2017-Nov-11 05:30N 53°27' W 003°01'0 0.0
2017-Nov-11 05:00N 53°27' W 003°01'0 0.0
2017-Nov-11 04:30N 53°27' W 003°01'0 0.7
2017-Nov-11 04:00N 53°28' W 003°01'0 0.7
2017-Nov-11 03:30N 53°27' W 003°01'0 0.4
2017-Nov-11 03:00N 53°27' W 003°01'0 0.6
2017-Nov-11 02:30N 53°27' W 003°01'1 1.4
2017-Nov-11 02:00N 53°27' W 003°02'1 2.5
2017-Nov-11 01:30N 53°26' W 003°01'1 1.3
2017-Nov-11 01:00N 53°27' W 003°02'0 0.8
2017-Nov-11 00:30N 53°26' W 003°01'0 0.6
2017-Nov-11 00:00N 53°26' W 003°01'0 0.0
2017-Nov-10 23:30N 53°26' W 003°01'0 0.3
2017-Nov-10 23:00N 53°26' W 003°01'0 0.2
2017-Nov-10 22:30N 53°27' W 003°00'1 1.5
2017-Nov-10 22:00N 53°26' W 002°60'0 0.0
2017-Nov-10 21:30N 53°26' W 002°60'0 0.0
2017-Nov-10 21:00N 53°26' W 002°60'0 0.0
2017-Nov-10 20:30N 53°26' W 002°60'0 0.0
2017-Nov-10 20:00N 53°26' W 002°60'0 0.0
2017-Nov-10 19:30N 53°26' W 002°60'0 0.0
2017-Nov-10 19:00N 53°26' W 002°60'0 0.0
2017-Nov-10 18:30N 53°26' W 002°60'0 0.0
2017-Nov-10 18:00N 53°26' W 002°60'0 0.0
2017-Nov-10 17:30N 53°26' W 002°60'0 0.0
2017-Nov-10 17:00N 53°26' W 002°60'0 0.0
2017-Nov-10 16:30N 53°26' W 002°60'0 0.0
2017-Nov-10 16:00N 53°26' W 002°60'0 0.0
2017-Nov-10 15:30N 53°26' W 002°60'0 0.0
2017-Nov-10 15:00N 53°26' W 002°60'1 2.9
2017-Nov-10 14:30N 53°27' W 003°01'0 0.9
2017-Nov-10 14:00N 53°27' W 003°01'2 4.7
2017-Nov-10 13:30N 53°28' W 003°04'2 4.1
2017-Nov-10 13:01N 53°27' W 003°01'1 1.5
2017-Nov-10 12:30N 53°26' W 003°01'1 1.6
2017-Nov-10 12:00N 53°27' W 003°01'0 0.8
2017-Nov-10 11:30N 53°27' W 003°01'0 0.8
2017-Nov-10 11:00N 53°26' W 003°01'0 0.0
2017-Nov-10 10:30N 53°26' W 003°01'0 0.2
2017-Nov-10 10:00N 53°26' W 003°01'0 0.5
2017-Nov-10 09:30N 53°27' W 003°00'0 0.4
2017-Nov-10 09:00N 53°27' W 003°01'0 0.2
2017-Nov-10 08:31N 53°26' W 003°01'0 0.2
2017-Nov-10 08:00N 53°26' W 003°01'0 0.1
2017-Nov-10 07:30N 53°26' W 003°01'0 0.3
2017-Nov-10 07:00N 53°26' W 003°01'1 1.3
2017-Nov-10 06:30N 53°26' W 002°60'0 0.0
2017-Nov-10 06:00N 53°26' W 002°60'0 0.0
2017-Nov-10 05:30N 53°26' W 002°60'0 0.0
2017-Nov-10 05:00N 53°26' W 002°60'0 0.0
2017-Nov-10 04:30N 53°26' W 002°60'0 0.0
2017-Nov-10 04:00N 53°26' W 002°60'0 0.0
2017-Nov-10 03:30N 53°26' W 002°60'0 0.0
2017-Nov-10 03:00N 53°26' W 002°60'0 0.0
2017-Nov-10 02:30N 53°26' W 002°60'0 0.0
2017-Nov-10 02:00N 53°26' W 002°60'0 0.0
2017-Nov-10 01:30N 53°26' W 002°60'0 0.0
2017-Nov-10 01:00N 53°26' W 002°60'  
Track history (hours):
 
Tides and Currents Weather Stations Pressure Air Temp Water Temp Dewpoint Dewpoint Depression Visibility Wind Speed Wind Dir Waves Ship Positions

Smit Barbados

Last reported at 2017-Nov-20 00:30 UTC. Time now 2017-Nov-20 13:58 UTC.
Position N 53°27' W 003°00'.

Length 30 m; draft 4.8 m.

Type: Tug. MMSI: 235055303.

Date/timePositionNaut miles runAvg speedWind from/ knotsBaromVisibWave heightAir tempDewpointWater temp
2017-Nov-20 00:30N 53°27' W 003°00'1 1.4
2017-Nov-20 00:00N 53°27' W 003°01'0 0.3
2017-Nov-19 23:30N 53°27' W 003°01'0 0.1
2017-Nov-19 23:00N 53°27' W 003°01'0 0.1
2017-Nov-19 22:30N 53°27' W 003°01'0 0.2
2017-Nov-19 22:00N 53°27' W 003°01'1 1.0
2017-Nov-19 21:30N 53°27' W 003°01'1 1.0
2017-Nov-19 21:00N 53°27' W 003°01'0 0.4
2017-Nov-19 20:30N 53°27' W 003°01'1 2.0
2017-Nov-19 20:00N 53°27' W 003°02'1 1.0
2017-Nov-19 19:30N 53°27' W 003°02'0 0.9
2017-Nov-19 19:00N 53°27' W 003°01'0 0.7
2017-Nov-19 18:30N 53°27' W 003°01'1 1.1
2017-Nov-19 18:00N 53°27' W 003°01'1 2.9
2017-Nov-19 17:30N 53°26' W 003°00'0 0.1
2017-Nov-19 17:00N 53°26' W 002°60'0 0.0
2017-Nov-19 16:30N 53°26' W 002°60'0 0.0
2017-Nov-19 16:00N 53°26' W 002°60'0 0.0
2017-Nov-19 15:30N 53°26' W 002°60'0 0.0
2017-Nov-19 15:00N 53°26' W 002°60'0 0.0
2017-Nov-19 14:30N 53°26' W 002°60'0 0.0
2017-Nov-19 14:00N 53°26' W 002°60'0 0.1
2017-Nov-19 13:30N 53°26' W 003°00'2 3.2
2017-Nov-19 13:00N 53°27' W 003°01'0 0.6
2017-Nov-19 12:30N 53°27' W 003°01'0 0.3
2017-Nov-19 12:00N 53°27' W 003°01'0 0.4
2017-Nov-19 11:30N 53°27' W 003°01'1 2.3
2017-Nov-19 11:00N 53°26' W 003°00'0 0.6
2017-Nov-19 10:30N 53°26' W 002°60'0 0.0
2017-Nov-19 10:00N 53°26' W 002°60'0 0.0
2017-Nov-19 09:30N 53°26' W 002°60'0 0.0
2017-Nov-19 09:00N 53°26' W 002°60'0 0.0
2017-Nov-19 08:30N 53°26' W 002°60'0 0.0
2017-Nov-19 08:00N 53°26' W 002°60'0 0.0
2017-Nov-19 07:30N 53°26' W 002°60'0 0.0
2017-Nov-19 07:00N 53°26' W 002°60'0 0.0
2017-Nov-19 06:30N 53°26' W 002°60'0 0.0
2017-Nov-19 06:00N 53°26' W 002°60'0 0.0
2017-Nov-19 05:30N 53°26' W 002°60'0 0.0
2017-Nov-19 05:00N 53°26' W 002°60'0 0.0
2017-Nov-19 04:30N 53°26' W 002°60'0 0.0
2017-Nov-19 04:00N 53°26' W 002°60'0 0.0
2017-Nov-19 03:30N 53°26' W 002°60'0 0.0
2017-Nov-19 03:00N 53°26' W 002°60'0 0.0
2017-Nov-19 02:30N 53°26' W 002°60'0 0.0
2017-Nov-19 02:00N 53°26' W 002°60'0 0.0
2017-Nov-19 01:30N 53°26' W 002°60'0 0.0
2017-Nov-19 01:00N 53°26' W 002°60'0 0.0
2017-Nov-19 00:30N 53°26' W 002°60'0 0.0
2017-Nov-19 00:00N 53°26' W 002°60'0 0.1
2017-Nov-18 23:30N 53°26' W 003°00'1 1.0
2017-Nov-18 23:00N 53°26' W 003°00'0 0.5
2017-Nov-18 22:30N 53°27' W 003°00'0 0.3
2017-Nov-18 22:00N 53°26' W 003°01'0 0.4
2017-Nov-18 21:30N 53°26' W 003°01'0 0.3
2017-Nov-18 21:00N 53°26' W 003°01'1 2.3
2017-Nov-18 20:30N 53°27' W 003°02'1 1.8
2017-Nov-18 20:00N 53°26' W 003°01'1 1.4
2017-Nov-18 19:30N 53°26' W 002°60'0 0.0
2017-Nov-18 19:00N 53°26' W 002°60'0 0.0
2017-Nov-18 18:30N 53°26' W 002°60'0 0.0
2017-Nov-18 18:00N 53°26' W 002°60'0 0.0
2017-Nov-18 17:30N 53°26' W 002°60'0 0.0
2017-Nov-18 17:00N 53°26' W 002°60'0 0.0
2017-Nov-18 16:30N 53°26' W 002°60'0 0.0
2017-Nov-18 16:00N 53°26' W 002°60'0 0.0
2017-Nov-18 15:30N 53°26' W 002°60'0 0.0
2017-Nov-18 15:00N 53°26' W 002°60'0 0.0
2017-Nov-18 14:30N 53°26' W 002°60'0 0.0
2017-Nov-18 14:00N 53°26' W 002°60'0 0.0
2017-Nov-18 13:30N 53°26' W 002°60'0 0.0
2017-Nov-18 13:00N 53°26' W 002°60'0 0.0
2017-Nov-18 12:30N 53°26' W 002°60'0 0.0
2017-Nov-18 12:00N 53°26' W 002°60'0 0.0
2017-Nov-18 11:30N 53°26' W 002°60'0 0.0
2017-Nov-18 11:00N 53°26' W 002°60'1 2.2
2017-Nov-18 10:30N 53°27' W 003°00'0 0.3
2017-Nov-18 10:00N 53°27' W 003°01'0 0.8
2017-Nov-18 09:30N 53°26' W 003°01'0 0.2
2017-Nov-18 09:00N 53°26' W 003°01'0 0.4
2017-Nov-18 08:30N 53°26' W 003°01'2 3.9
2017-Nov-18 08:00N 53°28' W 003°03'2 3.7
2017-Nov-18 07:30N 53°26' W 003°01'1 1.3
2017-Nov-18 07:00N 53°26' W 002°60'0 0.0
2017-Nov-18 06:30N 53°26' W 002°60'0 0.0
2017-Nov-18 06:00N 53°26' W 002°60'0 0.0
2017-Nov-18 05:30N 53°26' W 002°60'0 0.0
2017-Nov-18 05:00N 53°26' W 002°60'0 0.0
2017-Nov-18 04:30N 53°26' W 002°60'0 0.0
2017-Nov-18 04:00N 53°26' W 002°60'0 0.0
2017-Nov-18 03:30N 53°26' W 002°60'0 0.0
2017-Nov-18 03:00N 53°26' W 002°60'0 0.0
2017-Nov-18 02:30N 53°26' W 002°60'0 0.0
2017-Nov-18 02:00N 53°26' W 002°60'0 0.0
2017-Nov-18 01:30N 53°26' W 002°60'0 0.0
2017-Nov-18 01:00N 53°26' W 002°60'0 0.0
2017-Nov-18 00:30N 53°26' W 002°60'0 0.0
2017-Nov-18 00:00N 53°26' W 002°60'1 1.7
2017-Nov-17 23:30N 53°27' W 003°01'1 2.1
2017-Nov-17 23:00N 53°28' W 003°02'1 1.2
2017-Nov-17 22:30N 53°27' W 003°01'0 0.4
2017-Nov-17 22:00N 53°27' W 003°01'0 0.2
2017-Nov-17 21:30N 53°27' W 003°01'0 0.3
2017-Nov-17 21:00N 53°27' W 003°01'2 4.1
2017-Nov-17 20:30N 53°28' W 003°04'2 3.5
2017-Nov-17 20:00N 53°27' W 003°02'0 0.6
2017-Nov-17 19:30N 53°27' W 003°01'0 0.2
2017-Nov-17 19:00N 53°27' W 003°01'0 0.1
2017-Nov-17 18:30N 53°27' W 003°01'1 2.8
2017-Nov-17 18:00N 53°26' W 002°60'0 0.0
2017-Nov-17 17:30N 53°26' W 002°60'0 0.0
2017-Nov-17 17:00N 53°26' W 002°60'0 0.0
2017-Nov-17 16:30N 53°26' W 002°60'0 0.0
2017-Nov-17 16:00N 53°26' W 002°60'0 0.0
2017-Nov-17 15:30N 53°26' W 002°60'0 0.0
2017-Nov-17 15:00N 53°26' W 002°60'0 0.0
2017-Nov-17 14:30N 53°26' W 002°60'0 0.0
2017-Nov-17 14:00N 53°26' W 002°60'0 0.0
2017-Nov-17 13:30N 53°26' W 002°60'0 0.0
2017-Nov-17 13:00N 53°26' W 002°60'0 0.0
2017-Nov-17 12:30N 53°26' W 002°60'0 0.0
2017-Nov-17 12:00N 53°26' W 002°60'0 0.0
2017-Nov-17 11:30N 53°26' W 002°60'0 0.0
2017-Nov-17 11:00N 53°26' W 002°60'0 0.0
2017-Nov-17 10:30N 53°26' W 002°60'0 0.0
2017-Nov-17 10:00N 53°26' W 002°60'1 2.8
2017-Nov-17 09:30N 53°27' W 003°01'0 0.3
2017-Nov-17 09:00N 53°27' W 003°01'0 0.2
2017-Nov-17 08:30N 53°27' W 003°01'0 0.0
2017-Nov-17 08:00N 53°27' W 003°01'2 3.0
2017-Nov-17 07:30N 53°26' W 003°00'0 0.2
2017-Nov-17 07:00N 53°26' W 002°60'0 0.0
2017-Nov-17 06:30N 53°26' W 002°60'0 0.0
2017-Nov-17 06:00N 53°26' W 002°60'0 0.0
2017-Nov-17 05:30N 53°26' W 002°60'0 0.0
2017-Nov-17 05:00N 53°26' W 002°60'0 0.0
2017-Nov-17 04:30N 53°26' W 002°60'0 0.0
2017-Nov-17 04:00N 53°26' W 002°60'0 0.0
2017-Nov-17 03:31N 53°26' W 002°60'0 0.0
2017-Nov-17 03:00N 53°26' W 002°60'0 0.0
2017-Nov-17 02:30N 53°26' W 002°60'0 0.0
2017-Nov-17 02:00N 53°26' W 002°60'0 0.0
2017-Nov-17 01:30N 53°26' W 002°60'0 0.0
2017-Nov-17 01:00N 53°26' W 002°60'0 0.0
2017-Nov-17 00:30N 53°26' W 002°60'0 0.0
2017-Nov-17 00:00N 53°26' W 002°60'0 0.0
2017-Nov-16 23:30N 53°26' W 002°60'0 0.0
2017-Nov-16 23:00N 53°26' W 002°60'0 0.0
2017-Nov-16 22:31N 53°26' W 002°60'0 0.0
2017-Nov-16 22:00N 53°26' W 002°60'0 0.0
2017-Nov-16 21:30N 53°26' W 002°60'0 0.0
2017-Nov-16 21:00N 53°26' W 002°60'0 0.0
2017-Nov-16 20:30N 53°26' W 002°60'0 0.0
2017-Nov-16 20:00N 53°26' W 002°60'0 0.0
2017-Nov-16 19:30N 53°26' W 002°60'0 0.0
2017-Nov-16 19:01N 53°26' W 002°60'0 0.0
2017-Nov-16 18:30N 53°26' W 002°60'0 0.0
2017-Nov-16 18:00N 53°26' W 002°60'0 0.0
2017-Nov-16 17:31N 53°26' W 002°60'0 0.0
2017-Nov-16 17:00N 53°26' W 002°60'0 0.0
2017-Nov-16 16:30N 53°26' W 002°60'0 0.0
2017-Nov-16 16:00N 53°26' W 002°60'0 0.0
2017-Nov-16 15:30N 53°26' W 002°60'0 0.0
2017-Nov-16 15:00N 53°26' W 002°60'0 0.0
2017-Nov-16 14:30N 53°26' W 002°60'0 0.0
2017-Nov-16 14:00N 53°26' W 002°60'0 0.0
2017-Nov-16 13:31N 53°26' W 002°60'0 0.0
2017-Nov-16 13:00N 53°26' W 002°60'0 0.0
2017-Nov-16 12:30N 53°26' W 002°60'0 0.0
2017-Nov-16 12:00N 53°26' W 002°60'0 0.0
2017-Nov-16 11:30N 53°26' W 002°60'0 0.0
2017-Nov-16 11:00N 53°26' W 002°60'0 0.0
2017-Nov-16 10:30N 53°26' W 002°60'0 0.0
2017-Nov-16 10:00N 53°26' W 002°60'0 0.0
2017-Nov-16 09:30N 53°26' W 002°60'0 0.0
2017-Nov-16 09:00N 53°26' W 002°60'0 0.7
2017-Nov-16 08:30N 53°26' W 003°00'0 0.5
2017-Nov-16 08:00N 53°26' W 002°60'0 0.7
2017-Nov-16 07:30N 53°26' W 003°00'0 0.2
2017-Nov-16 07:00N 53°26' W 003°01'0 0.1
2017-Nov-16 06:30N 53°26' W 003°01'0 0.0
2017-Nov-16 06:00N 53°26' W 003°01'0 0.3
2017-Nov-16 05:30N 53°27' W 003°00'1 1.6
2017-Nov-16 05:00N 53°26' W 002°60'0 0.0
2017-Nov-16 04:30N 53°26' W 002°60'0 0.0
2017-Nov-16 04:00N 53°26' W 002°60'0 0.0
2017-Nov-16 03:30N 53°26' W 002°60'0 0.0
2017-Nov-16 03:00N 53°26' W 002°60'0 0.0
2017-Nov-16 02:30N 53°26' W 002°60'0 0.0
2017-Nov-16 02:00N 53°26' W 002°60'0 0.0
2017-Nov-16 01:30N 53°26' W 002°60'0 0.0
2017-Nov-16 01:00N 53°26' W 002°60'0 0.0
2017-Nov-16 00:30N 53°26' W 002°60'0 0.0
2017-Nov-16 00:00N 53°26' W 002°60'0 0.0
2017-Nov-15 23:30N 53°26' W 002°60'0 0.0
2017-Nov-15 23:00N 53°26' W 002°60'0 0.0
2017-Nov-15 22:30N 53°26' W 002°60'0 0.0
2017-Nov-15 22:00N 53°26' W 002°60'0 0.0
2017-Nov-15 21:30N 53°26' W 002°60'0 0.0
2017-Nov-15 21:00N 53°26' W 002°60'0 0.0
2017-Nov-15 20:30N 53°26' W 002°60'0 0.0
2017-Nov-15 20:00N 53°26' W 002°60'0 0.0
2017-Nov-15 19:30N 53°26' W 002°60'0 0.0
2017-Nov-15 19:00N 53°26' W 002°60'0 0.0
2017-Nov-15 18:30N 53°26' W 002°60'0 0.0
2017-Nov-15 18:00N 53°26' W 002°60'0 0.0
2017-Nov-15 17:30N 53°26' W 002°60'0 0.0
2017-Nov-15 17:00N 53°26' W 002°60'0 0.0
2017-Nov-15 16:30N 53°26' W 002°60'0 0.0
2017-Nov-15 16:01N 53°26' W 002°60'0 0.0
2017-Nov-15 15:30N 53°26' W 002°60'0 0.0
2017-Nov-15 15:00N 53°26' W 002°60'0 0.0
2017-Nov-15 14:30N 53°26' W 002°60'0 0.0
2017-Nov-15 14:00N 53°26' W 002°60'0 0.0
2017-Nov-15 13:30N 53°26' W 002°60'0 0.0
2017-Nov-15 13:01N 53°26' W 002°60'0 0.0
2017-Nov-15 12:30N 53°26' W 002°60'0 0.0
2017-Nov-15 12:00N 53°26' W 002°60'0 0.0
2017-Nov-15 11:30N 53°26' W 002°60'0 0.0
2017-Nov-15 11:00N 53°26' W 002°60'0 0.0
2017-Nov-15 10:31N 53°26' W 002°60'0 0.0
2017-Nov-15 10:00N 53°26' W 002°60'0 0.0
2017-Nov-15 09:31N 53°26' W 002°60'0 0.0
2017-Nov-15 09:00N 53°26' W 002°60'0 0.0
2017-Nov-15 08:30N 53°26' W 002°60'0 0.0
2017-Nov-15 08:00N 53°26' W 002°60'0 0.0
2017-Nov-15 07:30N 53°26' W 002°60'0 0.0
2017-Nov-15 07:00N 53°26' W 002°60'0 0.0
2017-Nov-15 06:30N 53°26' W 002°60'0 0.0
2017-Nov-15 06:01N 53°26' W 002°60'0 0.0
2017-Nov-15 05:30N 53°26' W 002°60'0 0.0
2017-Nov-15 05:00N 53°26' W 002°60'0 0.0
2017-Nov-15 04:31N 53°26' W 002°60'0 0.0
2017-Nov-15 04:00N 53°26' W 002°60'0 0.0
2017-Nov-15 03:30N 53°26' W 002°60'0 0.0
2017-Nov-15 03:00N 53°26' W 002°60'0 0.0
2017-Nov-15 02:30N 53°26' W 002°60'0 0.0
2017-Nov-15 02:00N 53°26' W 002°60'0 0.0
2017-Nov-15 01:30N 53°26' W 002°60'0 0.0
2017-Nov-15 01:01N 53°26' W 002°60'0 0.0
2017-Nov-15 00:30N 53°26' W 002°60'0 0.0
2017-Nov-15 00:01N 53°26' W 002°60'0 0.0
2017-Nov-14 23:30N 53°26' W 002°60'0 0.0
2017-Nov-14 23:00N 53°26' W 002°60'0 0.0
2017-Nov-14 22:30N 53°26' W 002°60'0 0.0
2017-Nov-14 22:00N 53°26' W 002°60'0 0.0
2017-Nov-14 21:30N 53°26' W 002°60'0 0.0
2017-Nov-14 21:01N 53°26' W 002°60'0 0.0
2017-Nov-14 20:31N 53°26' W 002°60'0 0.0
2017-Nov-14 20:00N 53°26' W 002°60'0 0.0
2017-Nov-14 19:30N 53°26' W 002°60'0 0.0
2017-Nov-14 19:00N 53°26' W 002°60'0 0.0
2017-Nov-14 18:30N 53°26' W 002°60'0 0.0
2017-Nov-14 18:00N 53°26' W 002°60'0 0.0
2017-Nov-14 17:30N 53°26' W 002°60'0 0.0
2017-Nov-14 17:00N 53°26' W 002°60'0 0.0
2017-Nov-14 16:30N 53°26' W 002°60'0 0.0
2017-Nov-14 16:01N 53°26' W 002°60'0 0.0
2017-Nov-14 15:30N 53°26' W 002°60'0 0.0
2017-Nov-14 15:00N 53°26' W 002°60'0 0.0
2017-Nov-14 14:30N 53°26' W 002°60'0 0.0
2017-Nov-14 14:00N 53°26' W 002°60'0 0.0
2017-Nov-14 13:30N 53°26' W 002°60'0 0.0
2017-Nov-14 13:01N 53°26' W 002°60'0 0.0
2017-Nov-14 12:31N 53°26' W 002°60'0 0.0
2017-Nov-14 12:00N 53°26' W 002°60'0 0.0
2017-Nov-14 11:30N 53°26' W 002°60'0 0.0
2017-Nov-14 11:01N 53°26' W 002°60'0 0.0
2017-Nov-14 10:30N 53°26' W 002°60'0 0.0
2017-Nov-14 10:00N 53°26' W 002°60'0 0.0
2017-Nov-14 09:30N 53°26' W 002°60'0 0.0
2017-Nov-14 09:00N 53°26' W 002°60'0 0.0
2017-Nov-14 08:30N 53°26' W 002°60'0 0.0
2017-Nov-14 08:00N 53°26' W 002°60'0 0.0
2017-Nov-14 07:31N 53°26' W 002°60'0 0.0
2017-Nov-14 07:00N 53°26' W 002°60'0 0.0
2017-Nov-14 06:30N 53°26' W 002°60'0 0.0
2017-Nov-14 06:00N 53°26' W 002°60'0 0.0
2017-Nov-14 05:30N 53°26' W 002°60'0 0.0
2017-Nov-14 05:00N 53°26' W 002°60'0 0.0
2017-Nov-14 04:30N 53°26' W 002°60'0 0.0
2017-Nov-14 04:00N 53°26' W 002°60'0 0.0
2017-Nov-14 03:30N 53°26' W 002°60'0 0.0
2017-Nov-14 03:00N 53°26' W 002°60'0 0.0
2017-Nov-14 02:30N 53°26' W 002°60'0 0.0
2017-Nov-14 02:00N 53°26' W 002°60'0 0.0
2017-Nov-14 01:30N 53°26' W 002°60'0 0.0
2017-Nov-14 01:00N 53°26' W 002°60'0 0.0
2017-Nov-14 00:30N 53°26' W 002°60'0 0.0
2017-Nov-14 00:01N 53°26' W 002°60'0 0.0
2017-Nov-13 23:31N 53°26' W 002°60'0 0.0
2017-Nov-13 23:00N 53°26' W 002°60'0 0.0
2017-Nov-13 22:30N 53°26' W 002°60'0 0.0
2017-Nov-13 22:00N 53°26' W 002°60'0 0.0
2017-Nov-13 02:00N 53°26' W 002°60'0 0.0
2017-Nov-13 01:30N 53°26' W 002°60'0 0.0
2017-Nov-13 01:00N 53°26' W 002°60'0 0.0
2017-Nov-13 00:30N 53°26' W 002°60'0 0.0
2017-Nov-13 00:00N 53°26' W 002°60'0 0.0
2017-Nov-12 23:30N 53°26' W 002°60'0 0.0
2017-Nov-12 23:00N 53°26' W 002°60'0 0.0
2017-Nov-12 22:30N 53°26' W 002°60'0 0.0
2017-Nov-12 22:00N 53°26' W 002°60'0 0.0
2017-Nov-12 21:30N 53°26' W 002°60'0 0.0
2017-Nov-12 21:00N 53°26' W 002°60'0 0.0
2017-Nov-12 20:30N 53°26' W 002°60'1 1.4
2017-Nov-12 20:00N 53°26' W 003°01'0 0.1
2017-Nov-12 19:30N 53°26' W 003°01'713.4
2017-Nov-12 19:01N 53°20' W 002°57'0 0.5
2017-Nov-12 18:30N 53°20' W 002°57'3 5.8
2017-Nov-12 18:00N 53°22' W 002°59'1 2.0
2017-Nov-12 17:30N 53°23' W 003°00'0 0.1
2017-Nov-12 17:00N 53°23' W 003°00'4 7.6
2017-Nov-12 16:30N 53°27' W 003°01'0 0.4
2017-Nov-12 16:01N 53°27' W 003°01'1 3.0
2017-Nov-12 15:31N 53°26' W 003°00'0 0.1
2017-Nov-12 15:00N 53°26' W 002°60'0 0.0
2017-Nov-12 14:30N 53°26' W 002°60'0 0.0
2017-Nov-12 14:00N 53°26' W 002°60'0 0.0
2017-Nov-12 13:30N 53°26' W 002°60'0 0.0
2017-Nov-12 13:00N 53°26' W 002°60'0 0.0
2017-Nov-12 12:30N 53°26' W 002°60'0 0.0
2017-Nov-12 12:00N 53°26' W 002°60'0 0.0
2017-Nov-12 11:30N 53°26' W 002°60'0 0.0
2017-Nov-12 11:00N 53°26' W 002°60'0 0.0
2017-Nov-12 10:30N 53°26' W 002°60'0 0.0
2017-Nov-12 10:00N 53°26' W 002°60'0 0.0
2017-Nov-12 09:30N 53°26' W 002°60'0 0.0
2017-Nov-12 09:00N 53°26' W 002°60'0 0.0
2017-Nov-12 08:30N 53°26' W 002°60'0 0.0
2017-Nov-12 08:00N 53°26' W 002°60'0 0.0
2017-Nov-12 07:30N 53°26' W 002°60'0 0.0
2017-Nov-12 07:00N 53°26' W 002°60'0 0.0
2017-Nov-12 06:30N 53°26' W 002°60'1 1.4
2017-Nov-12 06:00N 53°26' W 003°00'0 0.1
2017-Nov-12 05:30N 53°26' W 003°01'0 0.6
2017-Nov-12 05:00N 53°26' W 003°01'0 0.1
2017-Nov-12 04:30N 53°26' W 003°01'2 4.1
2017-Nov-12 04:00N 53°24' W 003°01'0 0.0
2017-Nov-12 03:30N 53°24' W 003°01'0 0.0
2017-Nov-12 03:00N 53°24' W 003°01'0 0.0
2017-Nov-12 02:30N 53°24' W 003°01'1 1.7
2017-Nov-12 02:00N 53°24' W 003°03'0 0.7
2017-Nov-12 01:30N 53°24' W 003°02'0 0.0
2017-Nov-12 01:00N 53°24' W 003°02'0 0.0
2017-Nov-12 00:30N 53°24' W 003°02'0 0.0
2017-Nov-12 00:00N 53°24' W 003°02'0 0.0
2017-Nov-11 23:30N 53°24' W 003°02'0 0.0
2017-Nov-11 23:00N 53°24' W 003°02'0 0.0
2017-Nov-11 22:30N 53°24' W 003°02'0 0.0
2017-Nov-11 22:00N 53°24' W 003°02'0 0.0
2017-Nov-11 21:30N 53°24' W 003°02'0 0.0
2017-Nov-11 21:00N 53°24' W 003°02'0 0.0
2017-Nov-11 20:30N 53°24' W 003°02'0 0.0
2017-Nov-11 20:00N 53°24' W 003°02'0 0.0
2017-Nov-11 19:30N 53°24' W 003°02'0 0.0
2017-Nov-11 19:00N 53°24' W 003°02'0 0.0
2017-Nov-11 18:30N 53°24' W 003°02'0 0.0
2017-Nov-11 18:00N 53°24' W 003°02'0 1.0
2017-Nov-11 17:30N 53°24' W 003°01'0 0.0
2017-Nov-11 17:00N 53°24' W 003°01'0 0.0
2017-Nov-11 16:30N 53°24' W 003°01'0 0.0
2017-Nov-11 16:00N 53°24' W 003°01'3 5.8
2017-Nov-11 15:30N 53°27' W 003°01'0 0.2
2017-Nov-11 14:59N 53°27' W 003°01'0 0.9
2017-Nov-11 14:30N 53°28' W 003°02'0 0.2
2017-Nov-11 14:00N 53°28' W 003°02'0 0.9
2017-Nov-11 13:30N 53°27' W 003°01'0 0.0
2017-Nov-11 13:00N 53°27' W 003°01'0 0.0
2017-Nov-11 12:30N 53°27' W 003°01'0 0.0
2017-Nov-11 12:00N 53°27' W 003°01'0 0.0
2017-Nov-11 11:30N 53°27' W 003°01'0 0.0
2017-Nov-11 11:00N 53°27' W 003°01'0 0.0
2017-Nov-11 10:30N 53°27' W 003°01'0 0.5
2017-Nov-11 10:00N 53°27' W 003°01'0 0.3
2017-Nov-11 09:30N 53°27' W 003°01'0 0.2
2017-Nov-11 09:00N 53°27' W 003°01'0 0.5
2017-Nov-11 08:30N 53°27' W 003°01'0 0.2
2017-Nov-11 08:00N 53°27' W 003°01'0 0.0
2017-Nov-11 07:30N 53°27' W 003°01'0 0.0
2017-Nov-11 07:00N 53°27' W 003°01'0 0.0
2017-Nov-11 06:30N 53°27' W 003°01'0 0.0
2017-Nov-11 06:00N 53°27' W 003°01'0 0.0
2017-Nov-11 05:30N 53°27' W 003°01'0 0.0
2017-Nov-11 05:00N 53°27' W 003°01'0 0.0
2017-Nov-11 04:30N 53°27' W 003°01'0 0.7
2017-Nov-11 04:00N 53°28' W 003°01'0 0.7
2017-Nov-11 03:30N 53°27' W 003°01'0 0.4
2017-Nov-11 03:00N 53°27' W 003°01'0 0.6
2017-Nov-11 02:30N 53°27' W 003°01'1 1.4
2017-Nov-11 02:00N 53°27' W 003°02'1 2.5
2017-Nov-11 01:30N 53°26' W 003°01'1 1.3
2017-Nov-11 01:00N 53°27' W 003°02'0 0.8
2017-Nov-11 00:30N 53°26' W 003°01'0 0.6
2017-Nov-11 00:00N 53°26' W 003°01'0 0.0
2017-Nov-10 23:30N 53°26' W 003°01'0 0.3
2017-Nov-10 23:00N 53°26' W 003°01'0 0.2
2017-Nov-10 22:30N 53°27' W 003°00'1 1.5
2017-Nov-10 22:00N 53°26' W 002°60'0 0.0
2017-Nov-10 21:30N 53°26' W 002°60'0 0.0
2017-Nov-10 21:00N 53°26' W 002°60'0 0.0
2017-Nov-10 20:30N 53°26' W 002°60'0 0.0
2017-Nov-10 20:00N 53°26' W 002°60'0 0.0
2017-Nov-10 19:30N 53°26' W 002°60'0 0.0
2017-Nov-10 19:00N 53°26' W 002°60'0 0.0
2017-Nov-10 18:30N 53°26' W 002°60'0 0.0
2017-Nov-10 18:00N 53°26' W 002°60'0 0.0
2017-Nov-10 17:30N 53°26' W 002°60'0 0.0
2017-Nov-10 17:00N 53°26' W 002°60'0 0.0
2017-Nov-10 16:30N 53°26' W 002°60'0 0.0
2017-Nov-10 16:00N 53°26' W 002°60'0 0.0
2017-Nov-10 15:30N 53°26' W 002°60'0 0.0
2017-Nov-10 15:00N 53°26' W 002°60'1 2.9
2017-Nov-10 14:30N 53°27' W 003°01'0 0.9
2017-Nov-10 14:00N 53°27' W 003°01'2 4.7
2017-Nov-10 13:30N 53°28' W 003°04'2 4.1
2017-Nov-10 13:01N 53°27' W 003°01'1 1.5
2017-Nov-10 12:30N 53°26' W 003°01'1 1.6
2017-Nov-10 12:00N 53°27' W 003°01'0 0.8
2017-Nov-10 11:30N 53°27' W 003°01'0 0.8
2017-Nov-10 11:00N 53°26' W 003°01'0 0.0
2017-Nov-10 10:30N 53°26' W 003°01'0 0.2
2017-Nov-10 10:00N 53°26' W 003°01'0 0.5
2017-Nov-10 09:30N 53°27' W 003°00'0 0.4
2017-Nov-10 09:00N 53°27' W 003°01'0 0.2
2017-Nov-10 08:31N 53°26' W 003°01'0 0.2
2017-Nov-10 08:00N 53°26' W 003°01'0 0.1
2017-Nov-10 07:30N 53°26' W 003°01'0 0.3
2017-Nov-10 07:00N 53°26' W 003°01'1 1.3
2017-Nov-10 06:30N 53°26' W 002°60'0 0.0
2017-Nov-10 06:00N 53°26' W 002°60'0 0.0
2017-Nov-10 05:30N 53°26' W 002°60'0 0.0
2017-Nov-10 05:00N 53°26' W 002°60'0 0.0
2017-Nov-10 04:30N 53°26' W 002°60'0 0.0
2017-Nov-10 04:00N 53°26' W 002°60'0 0.0
2017-Nov-10 03:30N 53°26' W 002°60'0 0.0
2017-Nov-10 03:00N 53°26' W 002°60'0 0.0
2017-Nov-10 02:30N 53°26' W 002°60'0 0.0
2017-Nov-10 02:00N 53°26' W 002°60'0 0.0
2017-Nov-10 01:30N 53°26' W 002°60'0 0.0
2017-Nov-10 01:00N 53°26' W 002°60'  

Dump ship's entire track history